sensor_id;sensor_type;location;lat;lon;timestamp;temperature;humidity
48860;DHT22;34679;51.436;-2.518;2022-12-05T00:01:37;4.50;99.90
48860;DHT22;34679;51.436;-2.518;2022-12-05T00:04:06;4.50;99.90
48860;DHT22;34679;51.436;-2.518;2022-12-05T00:06:33;4.50;99.90
48860;DHT22;34679;51.436;-2.518;2022-12-05T00:08:59;4.50;99.90
48860;DHT22;34679;51.436;-2.518;2022-12-05T00:11:28;2.60;99.90
48860;DHT22;34679;51.436;-2.518;2022-12-05T00:13:57;4.40;99.90
48860;DHT22;34679;51.436;-2.518;2022-12-05T00:16:25;4.50;99.90
48860;DHT22;34679;51.436;-2.518;2022-12-05T00:18:51;4.40;99.90
48860;DHT22;34679;51.436;-2.518;2022-12-05T00:21:22;4.40;99.90
48860;DHT22;34679;51.436;-2.518;2022-12-05T00:23:49;4.40;99.90
48860;DHT22;34679;51.436;-2.518;2022-12-05T00:26:15;4.50;99.90
48860;DHT22;34679;51.436;-2.518;2022-12-05T00:28:41;4.40;99.90
48860;DHT22;34679;51.436;-2.518;2022-12-05T00:31:09;4.40;99.90
48860;DHT22;34679;51.436;-2.518;2022-12-05T00:33:35;4.30;99.90
48860;DHT22;34679;51.436;-2.518;2022-12-05T00:36:07;4.30;99.90
48860;DHT22;34679;51.436;-2.518;2022-12-05T00:38:34;4.30;99.90
48860;DHT22;34679;51.436;-2.518;2022-12-05T00:41:07;4.30;99.90
48860;DHT22;34679;51.436;-2.518;2022-12-05T00:43:33;4.30;99.90
48860;DHT22;34679;51.436;-2.518;2022-12-05T00:46:08;4.30;99.90
48860;DHT22;34679;51.436;-2.518;2022-12-05T00:48:34;4.30;99.90
48860;DHT22;34679;51.436;-2.518;2022-12-05T00:51:09;4.10;99.90
48860;DHT22;34679;51.436;-2.518;2022-12-05T00:53:35;4.30;99.90
48860;DHT22;34679;51.436;-2.518;2022-12-05T00:56:03;4.30;99.90
48860;DHT22;34679;51.436;-2.518;2022-12-05T00:58:29;4.30;99.90
48860;DHT22;34679;51.436;-2.518;2022-12-05T01:00:55;4.40;99.90
48860;DHT22;34679;51.436;-2.518;2022-12-05T01:03:21;4.30;99.90
48860;DHT22;34679;51.436;-2.518;2022-12-05T01:05:47;4.30;99.90
48860;DHT22;34679;51.436;-2.518;2022-12-05T01:08:13;3.30;99.90
48860;DHT22;34679;51.436;-2.518;2022-12-05T01:10:38;4.40;99.90
48860;DHT22;34679;51.436;-2.518;2022-12-05T01:13:04;4.40;99.90
48860;DHT22;34679;51.436;-2.518;2022-12-05T01:15:30;4.50;99.90
48860;DHT22;34679;51.436;-2.518;2022-12-05T01:17:55;4.40;99.90
48860;DHT22;34679;51.436;-2.518;2022-12-05T01:20:21;4.40;99.90
48860;DHT22;34679;51.436;-2.518;2022-12-05T01:22:47;4.30;99.90
48860;DHT22;34679;51.436;-2.518;2022-12-05T01:25:12;4.30;99.90
48860;DHT22;34679;51.436;-2.518;2022-12-05T01:27:38;4.40;99.90
48860;DHT22;34679;51.436;-2.518;2022-12-05T01:30:05;4.40;99.90
48860;DHT22;34679;51.436;-2.518;2022-12-05T01:32:31;4.40;99.90
48860;DHT22;34679;51.436;-2.518;2022-12-05T01:34:56;4.40;99.90
48860;DHT22;34679;51.436;-2.518;2022-12-05T01:37:22;4.30;99.90
48860;DHT22;34679;51.436;-2.518;2022-12-05T01:39:48;4.30;99.90
48860;DHT22;34679;51.436;-2.518;2022-12-05T01:42:14;4.30;99.90
48860;DHT22;34679;51.436;-2.518;2022-12-05T01:47:15;4.40;99.90
48860;DHT22;34679;51.436;-2.518;2022-12-05T01:49:42;4.40;99.90
48860;DHT22;34679;51.436;-2.518;2022-12-05T01:52:19;4.40;99.90
48860;DHT22;34679;51.436;-2.518;2022-12-05T01:54:48;4.40;99.90
48860;DHT22;34679;51.436;-2.518;2022-12-05T01:57:14;4.40;99.90
48860;DHT22;34679;51.436;-2.518;2022-12-05T01:59:44;4.40;99.90
48860;DHT22;34679;51.436;-2.518;2022-12-05T02:02:12;4.30;99.90
48860;DHT22;34679;51.436;-2.518;2022-12-05T02:04:57;4.30;99.90
48860;DHT22;34679;51.436;-2.518;2022-12-05T02:07:23;4.40;99.90
48860;DHT22;34679;51.436;-2.518;2022-12-05T02:09:50;4.40;99.90
48860;DHT22;34679;51.436;-2.518;2022-12-05T02:12:18;4.40;99.90
48860;DHT22;34679;51.436;-2.518;2022-12-05T02:30:42;2.50;99.90
48860;DHT22;34679;51.436;-2.518;2022-12-05T02:36:16;2.20;99.90
48860;DHT22;34679;51.436;-2.518;2022-12-05T02:39:02;4.30;99.90
48860;DHT22;34679;51.436;-2.518;2022-12-05T02:41:33;4.30;99.90
48860;DHT22;34679;51.436;-2.518;2022-12-05T02:46:35;4.30;99.90
48860;DHT22;34679;51.436;-2.518;2022-12-05T02:49:06;4.30;99.90
48860;DHT22;34679;51.436;-2.518;2022-12-05T02:51:45;4.30;99.90
48860;DHT22;34679;51.436;-2.518;2022-12-05T02:54:17;4.30;99.90
48860;DHT22;34679;51.436;-2.518;2022-12-05T02:56:45;4.30;99.90
48860;DHT22;34679;51.436;-2.518;2022-12-05T02:59:12;4.30;99.90
48860;DHT22;34679;51.436;-2.518;2022-12-05T03:01:38;4.30;99.90
48860;DHT22;34679;51.436;-2.518;2022-12-05T03:04:05;4.30;99.90
48860;DHT22;34679;51.436;-2.518;2022-12-05T03:09:44;4.40;99.90
48860;DHT22;34679;51.436;-2.518;2022-12-05T03:12:19;4.40;99.90
48860;DHT22;34679;51.436;-2.518;2022-12-05T03:17:34;4.30;99.90
48860;DHT22;34679;51.436;-2.518;2022-12-05T03:23:24;4.30;99.90
48860;DHT22;34679;51.436;-2.518;2022-12-05T03:25:57;4.40;99.90
48860;DHT22;34679;51.436;-2.518;2022-12-05T03:29:08;4.40;99.90
48860;DHT22;34679;51.436;-2.518;2022-12-05T03:32:06;4.40;99.90
48860;DHT22;34679;51.436;-2.518;2022-12-05T03:37:34;4.40;99.90
48860;DHT22;34679;51.436;-2.518;2022-12-05T03:42:54;4.40;99.90
48860;DHT22;34679;51.436;-2.518;2022-12-05T03:45:27;4.40;99.90
48860;DHT22;34679;51.436;-2.518;2022-12-05T03:50:30;4.40;99.90
48860;DHT22;34679;51.436;-2.518;2022-12-05T03:53:07;4.40;99.90
48860;DHT22;34679;51.436;-2.518;2022-12-05T03:55:36;4.40;99.90
48860;DHT22;34679;51.436;-2.518;2022-12-05T03:58:10;4.10;99.90
48860;DHT22;34679;51.436;-2.518;2022-12-05T04:00:41;4.40;99.90
48860;DHT22;34679;51.436;-2.518;2022-12-05T04:03:22;4.50;99.90
48860;DHT22;34679;51.436;-2.518;2022-12-05T04:05:55;4.50;99.90
48860;DHT22;34679;51.436;-2.518;2022-12-05T04:08:39;4.50;99.90
48860;DHT22;34679;51.436;-2.518;2022-12-05T04:11:16;4.50;99.90
48860;DHT22;34679;51.436;-2.518;2022-12-05T04:16:11;4.60;99.90
48860;DHT22;34679;51.436;-2.518;2022-12-05T04:21:52;4.50;99.90
48860;DHT22;34679;51.436;-2.518;2022-12-05T04:24:38;4.50;99.90
48860;DHT22;34679;51.436;-2.518;2022-12-05T04:30:11;4.60;99.90
48860;DHT22;34679;51.436;-2.518;2022-12-05T04:33:05;4.60;99.90
48860;DHT22;34679;51.436;-2.518;2022-12-05T04:35:57;4.50;99.90
48860;DHT22;34679;51.436;-2.518;2022-12-05T04:41:10;4.50;99.90
48860;DHT22;34679;51.436;-2.518;2022-12-05T04:43:40;4.50;99.90
48860;DHT22;34679;51.436;-2.518;2022-12-05T04:46:09;4.50;99.90
48860;DHT22;34679;51.436;-2.518;2022-12-05T04:48:38;4.50;99.90
48860;DHT22;34679;51.436;-2.518;2022-12-05T04:51:07;4.60;99.90
48860;DHT22;34679;51.436;-2.518;2022-12-05T04:53:34;4.60;99.90
48860;DHT22;34679;51.436;-2.518;2022-12-05T04:56:02;4.60;99.90
48860;DHT22;34679;51.436;-2.518;2022-12-05T04:58:29;4.60;99.90
48860;DHT22;34679;51.436;-2.518;2022-12-05T05:01:01;4.60;99.90
48860;DHT22;34679;51.436;-2.518;2022-12-05T05:03:54;4.60;99.90
48860;DHT22;34679;51.436;-2.518;2022-12-05T05:06:22;4.80;99.90
48860;DHT22;34679;51.436;-2.518;2022-12-05T05:08:51;4.70;99.90
48860;DHT22;34679;51.436;-2.518;2022-12-05T05:11:25;4.80;99.90
48860;DHT22;34679;51.436;-2.518;2022-12-05T05:13:52;4.70;99.90
48860;DHT22;34679;51.436;-2.518;2022-12-05T05:16:26;4.70;99.90
48860;DHT22;34679;51.436;-2.518;2022-12-05T05:18:52;4.70;99.90
48860;DHT22;34679;51.436;-2.518;2022-12-05T05:21:29;4.80;99.90
48860;DHT22;34679;51.436;-2.518;2022-12-05T05:23:56;4.70;99.90
48860;DHT22;34679;51.436;-2.518;2022-12-05T05:26:23;4.80;99.90
48860;DHT22;34679;51.436;-2.518;2022-12-05T05:28:49;4.70;99.90
48860;DHT22;34679;51.436;-2.518;2022-12-05T05:31:16;4.80;99.90
48860;DHT22;34679;51.436;-2.518;2022-12-05T05:33:42;4.80;99.90
48860;DHT22;34679;51.436;-2.518;2022-12-05T05:36:10;4.80;99.90
48860;DHT22;34679;51.436;-2.518;2022-12-05T05:38:38;4.90;99.90
48860;DHT22;34679;51.436;-2.518;2022-12-05T05:41:04;4.80;99.90
48860;DHT22;34679;51.436;-2.518;2022-12-05T05:43:30;4.90;99.90
48860;DHT22;34679;51.436;-2.518;2022-12-05T05:45:56;4.90;99.90
48860;DHT22;34679;51.436;-2.518;2022-12-05T05:48:21;4.90;99.90
48860;DHT22;34679;51.436;-2.518;2022-12-05T05:50:47;4.90;99.90
48860;DHT22;34679;51.436;-2.518;2022-12-05T05:53:13;4.80;99.90
48860;DHT22;34679;51.436;-2.518;2022-12-05T05:55:39;4.80;99.90
48860;DHT22;34679;51.436;-2.518;2022-12-05T05:58:05;4.80;99.90
48860;DHT22;34679;51.436;-2.518;2022-12-05T06:00:31;4.70;99.90
48860;DHT22;34679;51.436;-2.518;2022-12-05T06:02:57;4.80;99.90
48860;DHT22;34679;51.436;-2.518;2022-12-05T06:05:23;4.80;99.90
48860;DHT22;34679;51.436;-2.518;2022-12-05T06:07:48;4.90;99.90
48860;DHT22;34679;51.436;-2.518;2022-12-05T06:10:14;4.90;99.90
48860;DHT22;34679;51.436;-2.518;2022-12-05T06:12:40;4.90;99.90
48860;DHT22;34679;51.436;-2.518;2022-12-05T06:15:06;5.00;99.90
48860;DHT22;34679;51.436;-2.518;2022-12-05T06:17:32;5.00;99.90
48860;DHT22;34679;51.436;-2.518;2022-12-05T06:19:58;5.00;99.90
48860;DHT22;34679;51.436;-2.518;2022-12-05T06:22:23;4.90;99.90
48860;DHT22;34679;51.436;-2.518;2022-12-05T06:24:49;5.00;99.90
48860;DHT22;34679;51.436;-2.518;2022-12-05T06:27:15;5.00;99.90
48860;DHT22;34679;51.436;-2.518;2022-12-05T06:29:41;5.00;99.90
48860;DHT22;34679;51.436;-2.518;2022-12-05T06:32:06;5.00;99.90
48860;DHT22;34679;51.436;-2.518;2022-12-05T06:34:32;4.90;99.90
48860;DHT22;34679;51.436;-2.518;2022-12-05T06:36:59;4.90;99.90
48860;DHT22;34679;51.436;-2.518;2022-12-05T06:39:25;4.90;99.90
48860;DHT22;34679;51.436;-2.518;2022-12-05T06:41:51;4.90;99.90
48860;DHT22;34679;51.436;-2.518;2022-12-05T06:44:17;4.90;99.90
48860;DHT22;34679;51.436;-2.518;2022-12-05T06:46:42;5.00;99.90
48860;DHT22;34679;51.436;-2.518;2022-12-05T06:49:09;4.00;99.90
48860;DHT22;34679;51.436;-2.518;2022-12-05T06:51:35;4.90;99.90
48860;DHT22;34679;51.436;-2.518;2022-12-05T06:54:01;4.90;99.90
48860;DHT22;34679;51.436;-2.518;2022-12-05T06:56:26;4.90;99.90
48860;DHT22;34679;51.436;-2.518;2022-12-05T06:58:54;4.80;99.90
48860;DHT22;34679;51.436;-2.518;2022-12-05T07:01:22;4.80;99.90
48860;DHT22;34679;51.436;-2.518;2022-12-05T07:04:15;4.80;99.90
48860;DHT22;34679;51.436;-2.518;2022-12-05T07:06:43;4.80;99.90
48860;DHT22;34679;51.436;-2.518;2022-12-05T07:09:09;4.80;99.90
48860;DHT22;34679;51.436;-2.518;2022-12-05T07:11:35;4.80;99.90
48860;DHT22;34679;51.436;-2.518;2022-12-05T07:14:02;4.80;99.90
48860;DHT22;34679;51.436;-2.518;2022-12-05T07:16:28;4.90;99.90
48860;DHT22;34679;51.436;-2.518;2022-12-05T07:18:54;4.80;99.90
48860;DHT22;34679;51.436;-2.518;2022-12-05T07:21:20;4.80;99.90
48860;DHT22;34679;51.436;-2.518;2022-12-05T07:23:47;4.80;99.90
48860;DHT22;34679;51.436;-2.518;2022-12-05T07:26:19;4.80;99.90
48860;DHT22;34679;51.436;-2.518;2022-12-05T07:28:45;4.80;99.90
48860;DHT22;34679;51.436;-2.518;2022-12-05T07:31:14;4.80;99.90
48860;DHT22;34679;51.436;-2.518;2022-12-05T07:33:40;4.80;99.90
48860;DHT22;34679;51.436;-2.518;2022-12-05T07:36:09;4.80;99.90
48860;DHT22;34679;51.436;-2.518;2022-12-05T07:38:35;4.80;99.90
48860;DHT22;34679;51.436;-2.518;2022-12-05T07:41:06;4.80;99.90
48860;DHT22;34679;51.436;-2.518;2022-12-05T07:43:32;4.80;99.90
48860;DHT22;34679;51.436;-2.518;2022-12-05T07:46:03;4.80;99.90
48860;DHT22;34679;51.436;-2.518;2022-12-05T07:48:29;4.80;99.90
48860;DHT22;34679;51.436;-2.518;2022-12-05T07:51:01;4.80;99.90
48860;DHT22;34679;51.436;-2.518;2022-12-05T07:53:28;4.80;99.90
48860;DHT22;34679;51.436;-2.518;2022-12-05T07:55:57;4.90;99.90
48860;DHT22;34679;51.436;-2.518;2022-12-05T07:58:22;4.90;99.90
48860;DHT22;34679;51.436;-2.518;2022-12-05T08:00:48;4.90;99.90
48860;DHT22;34679;51.436;-2.518;2022-12-05T08:03:14;4.90;99.90
48860;DHT22;34679;51.436;-2.518;2022-12-05T08:05:39;4.90;99.90
48860;DHT22;34679;51.436;-2.518;2022-12-05T08:08:05;4.90;99.90
48860;DHT22;34679;51.436;-2.518;2022-12-05T08:10:31;4.90;99.90
48860;DHT22;34679;51.436;-2.518;2022-12-05T08:12:58;4.80;99.90
48860;DHT22;34679;51.436;-2.518;2022-12-05T08:15:24;4.90;99.90
48860;DHT22;34679;51.436;-2.518;2022-12-05T08:17:49;4.90;99.90
48860;DHT22;34679;51.436;-2.518;2022-12-05T08:20:15;4.90;99.90
48860;DHT22;34679;51.436;-2.518;2022-12-05T08:22:40;4.90;99.90
48860;DHT22;34679;51.436;-2.518;2022-12-05T08:25:06;4.90;99.90
48860;DHT22;34679;51.436;-2.518;2022-12-05T08:27:32;5.00;99.90
48860;DHT22;34679;51.436;-2.518;2022-12-05T08:29:58;5.10;99.90
48860;DHT22;34679;51.436;-2.518;2022-12-05T08:32:24;5.10;99.90
48860;DHT22;34679;51.436;-2.518;2022-12-05T08:34:49;5.10;99.90
48860;DHT22;34679;51.436;-2.518;2022-12-05T08:37:20;5.10;99.90
48860;DHT22;34679;51.436;-2.518;2022-12-05T08:39:47;5.00;99.90
48860;DHT22;34679;51.436;-2.518;2022-12-05T08:42:14;5.10;99.90
48860;DHT22;34679;51.436;-2.518;2022-12-05T08:44:39;5.10;99.90
48860;DHT22;34679;51.436;-2.518;2022-12-05T08:47:05;5.10;99.90
48860;DHT22;34679;51.436;-2.518;2022-12-05T08:49:31;5.10;99.90
48860;DHT22;34679;51.436;-2.518;2022-12-05T08:51:57;5.10;99.90
48860;DHT22;34679;51.436;-2.518;2022-12-05T08:54:22;5.20;99.90
48860;DHT22;34679;51.436;-2.518;2022-12-05T08:56:51;5.30;99.90
48860;DHT22;34679;51.436;-2.518;2022-12-05T08:59:17;5.20;99.90
48860;DHT22;34679;51.436;-2.518;2022-12-05T09:01:43;5.30;99.90
48860;DHT22;34679;51.436;-2.518;2022-12-05T09:04:09;5.20;99.90
48860;DHT22;34679;51.436;-2.518;2022-12-05T09:06:35;5.20;99.90
48860;DHT22;34679;51.436;-2.518;2022-12-05T09:09:04;5.30;99.90
48860;DHT22;34679;51.436;-2.518;2022-12-05T09:11:33;5.40;99.90
48860;DHT22;34679;51.436;-2.518;2022-12-05T09:14:00;5.30;99.90
48860;DHT22;34679;51.436;-2.518;2022-12-05T09:16:28;5.40;99.90
48860;DHT22;34679;51.436;-2.518;2022-12-05T09:18:54;5.50;99.90
48860;DHT22;34679;51.436;-2.518;2022-12-05T09:21:26;5.50;99.90
48860;DHT22;34679;51.436;-2.518;2022-12-05T09:23:56;5.40;99.90
48860;DHT22;34679;51.436;-2.518;2022-12-05T09:26:24;5.40;99.90
48860;DHT22;34679;51.436;-2.518;2022-12-05T09:28:51;5.50;99.90
48860;DHT22;34679;51.436;-2.518;2022-12-05T09:31:20;5.50;99.90
48860;DHT22;34679;51.436;-2.518;2022-12-05T09:33:47;5.60;99.90
48860;DHT22;34679;51.436;-2.518;2022-12-05T09:36:21;5.70;99.90
48860;DHT22;34679;51.436;-2.518;2022-12-05T09:38:48;5.70;99.90
48860;DHT22;34679;51.436;-2.518;2022-12-05T09:51:21;5.80;99.90
48860;DHT22;34679;51.436;-2.518;2022-12-05T09:53:48;6.80;99.90
48860;DHT22;34679;51.436;-2.518;2022-12-05T09:59:33;6.00;99.90
48860;DHT22;34679;51.436;-2.518;2022-12-05T10:02:45;6.00;99.90
48860;DHT22;34679;51.436;-2.518;2022-12-05T10:04:54;5.20;99.90
48860;DHT22;34679;51.436;-2.518;2022-12-05T10:18:36;6.20;99.90
48860;DHT22;34679;51.436;-2.518;2022-12-05T10:23:53;6.30;99.90
48860;DHT22;34679;51.436;-2.518;2022-12-05T10:26:20;6.30;99.90
48860;DHT22;34679;51.436;-2.518;2022-12-05T10:31:44;6.40;99.90
48860;DHT22;34679;51.436;-2.518;2022-12-05T10:34:22;6.50;99.90
48860;DHT22;34679;51.436;-2.518;2022-12-05T10:37:16;6.40;99.90
48860;DHT22;34679;51.436;-2.518;2022-12-05T10:39:43;6.50;99.90
48860;DHT22;34679;51.436;-2.518;2022-12-05T10:42:20;6.50;99.90
48860;DHT22;34679;51.436;-2.518;2022-12-05T10:44:50;6.50;99.90
48860;DHT22;34679;51.436;-2.518;2022-12-05T10:47:19;6.60;99.90
48860;DHT22;34679;51.436;-2.518;2022-12-05T10:49:45;6.60;99.90
48860;DHT22;34679;51.436;-2.518;2022-12-05T10:52:13;6.70;99.90
48860;DHT22;34679;51.436;-2.518;2022-12-05T10:54:46;6.70;99.90
48860;DHT22;34679;51.436;-2.518;2022-12-05T10:57:25;6.70;99.90
48860;DHT22;34679;51.436;-2.518;2022-12-05T10:59:51;6.70;99.90
48860;DHT22;34679;51.436;-2.518;2022-12-05T11:02:22;6.80;99.90
48860;DHT22;34679;51.436;-2.518;2022-12-05T11:04:49;6.80;99.90
48860;DHT22;34679;51.436;-2.518;2022-12-05T11:07:44;6.90;99.90
48860;DHT22;34679;51.436;-2.518;2022-12-05T11:10:32;6.90;99.90
48860;DHT22;34679;51.436;-2.518;2022-12-05T11:12:59;7.00;99.90
48860;DHT22;34679;51.436;-2.518;2022-12-05T11:15:28;7.00;99.90
48860;DHT22;34679;51.436;-2.518;2022-12-05T11:17:56;7.10;99.90
48860;DHT22;34679;51.436;-2.518;2022-12-05T11:22:54;7.00;99.90
48860;DHT22;34679;51.436;-2.518;2022-12-05T11:25:33;6.10;99.90
48860;DHT22;34679;51.436;-2.518;2022-12-05T11:31:02;7.20;99.90
48860;DHT22;34679;51.436;-2.518;2022-12-05T11:33:33;7.30;99.90
48860;DHT22;34679;51.436;-2.518;2022-12-05T11:38:40;7.40;99.90
48860;DHT22;34679;51.436;-2.518;2022-12-05T11:45:10;7.40;99.90
48860;DHT22;34679;51.436;-2.518;2022-12-05T11:55:45;7.40;99.90
48860;DHT22;34679;51.436;-2.518;2022-12-05T12:01:45;7.80;99.90
48860;DHT22;34679;51.436;-2.518;2022-12-05T12:04:19;8.00;99.90
48860;DHT22;34679;51.436;-2.518;2022-12-05T12:10:00;7.80;99.90
48860;DHT22;34679;51.436;-2.518;2022-12-05T12:12:44;7.70;99.90
48860;DHT22;34679;51.436;-2.518;2022-12-05T12:37:31;7.60;99.90
48860;DHT22;34679;51.436;-2.518;2022-12-05T12:52:18;7.80;99.90
48860;DHT22;34679;51.436;-2.518;2022-12-05T12:58:14;7.80;99.90
48860;DHT22;34679;51.436;-2.518;2022-12-05T13:05:49;7.60;99.90
48860;DHT22;34679;51.436;-2.518;2022-12-05T13:08:34;7.60;99.90
48860;DHT22;34679;51.436;-2.518;2022-12-05T13:11:05;7.70;99.90
48860;DHT22;34679;51.436;-2.518;2022-12-05T13:13:35;7.60;99.90
48860;DHT22;34679;51.436;-2.518;2022-12-05T13:16:05;7.70;99.90
48860;DHT22;34679;51.436;-2.518;2022-12-05T13:18:32;7.70;99.90
48860;DHT22;34679;51.436;-2.518;2022-12-05T13:21:01;7.80;99.90
48860;DHT22;34679;51.436;-2.518;2022-12-05T13:23:31;7.70;99.90
48860;DHT22;34679;51.436;-2.518;2022-12-05T13:25:59;7.70;99.90
48860;DHT22;34679;51.436;-2.518;2022-12-05T13:28:32;7.70;99.90
48860;DHT22;34679;51.436;-2.518;2022-12-05T13:33:55;7.60;99.90
48860;DHT22;34679;51.436;-2.518;2022-12-05T13:36:21;7.70;99.90
48860;DHT22;34679;51.436;-2.518;2022-12-05T13:39:12;7.70;99.90
48860;DHT22;34679;51.436;-2.518;2022-12-05T13:42:00;7.70;99.90
48860;DHT22;34679;51.436;-2.518;2022-12-05T13:44:49;7.80;99.90
48860;DHT22;34679;51.436;-2.518;2022-12-05T13:50:13;7.90;99.90
48860;DHT22;34679;51.436;-2.518;2022-12-05T13:52:49;8.00;99.90
48860;DHT22;34679;51.436;-2.518;2022-12-05T13:57:50;7.90;99.90
48860;DHT22;34679;51.436;-2.518;2022-12-05T14:10:14;7.90;99.90
48860;DHT22;34679;51.436;-2.518;2022-12-05T14:12:57;7.90;99.90
48860;DHT22;34679;51.436;-2.518;2022-12-05T14:15:32;8.00;99.90
48860;DHT22;34679;51.436;-2.518;2022-12-05T14:23:48;7.70;99.90
48860;DHT22;34679;51.436;-2.518;2022-12-05T14:29:13;7.70;99.90
48860;DHT22;34679;51.436;-2.518;2022-12-05T14:34:30;7.70;99.90
48860;DHT22;34679;51.436;-2.518;2022-12-05T14:37:03;7.70;99.90
48860;DHT22;34679;51.436;-2.518;2022-12-05T14:39:38;7.80;99.90
48860;DHT22;34679;51.436;-2.518;2022-12-05T14:44:48;7.80;99.90
48860;DHT22;34679;51.436;-2.518;2022-12-05T14:47:20;7.80;99.90
48860;DHT22;34679;51.436;-2.518;2022-12-05T14:49:57;7.90;99.90
48860;DHT22;34679;51.436;-2.518;2022-12-05T14:52:29;8.00;99.90
48860;DHT22;34679;51.436;-2.518;2022-12-05T14:55:05;8.00;99.90
48860;DHT22;34679;51.436;-2.518;2022-12-05T14:57:47;7.90;99.90
48860;DHT22;34679;51.436;-2.518;2022-12-05T15:00:21;7.90;99.90
48860;DHT22;34679;51.436;-2.518;2022-12-05T15:02:48;7.90;99.90
48860;DHT22;34679;51.436;-2.518;2022-12-05T15:05:31;7.80;99.90
48860;DHT22;34679;51.436;-2.518;2022-12-05T15:07:59;7.90;99.90
48860;DHT22;34679;51.436;-2.518;2022-12-05T15:10:34;7.80;99.90
48860;DHT22;34679;51.436;-2.518;2022-12-05T15:13:09;7.90;99.90
48860;DHT22;34679;51.436;-2.518;2022-12-05T15:15:43;7.90;99.90
48860;DHT22;34679;51.436;-2.518;2022-12-05T15:18:23;7.90;99.90
48860;DHT22;34679;51.436;-2.518;2022-12-05T15:23:46;7.90;99.90
48860;DHT22;34679;51.436;-2.518;2022-12-05T15:31:44;7.80;99.90
48860;DHT22;34679;51.436;-2.518;2022-12-05T15:37:15;7.80;99.90
48860;DHT22;34679;51.436;-2.518;2022-12-05T15:40:10;7.70;99.90
48860;DHT22;34679;51.436;-2.518;2022-12-05T15:42:57;7.70;99.90
48860;DHT22;34679;51.436;-2.518;2022-12-05T15:45:28;7.70;99.90
48860;DHT22;34679;51.436;-2.518;2022-12-05T15:50:38;7.80;99.90
48860;DHT22;34679;51.436;-2.518;2022-12-05T15:53:31;7.70;99.90
48860;DHT22;34679;51.436;-2.518;2022-12-05T16:01:25;7.70;99.90
48860;DHT22;34679;51.436;-2.518;2022-12-05T16:04:01;7.60;99.90
48860;DHT22;34679;51.436;-2.518;2022-12-05T16:06:42;7.60;99.90
48860;DHT22;34679;51.436;-2.518;2022-12-05T16:09:16;7.60;99.90
48860;DHT22;34679;51.436;-2.518;2022-12-05T16:14:22;7.60;99.90
48860;DHT22;34679;51.436;-2.518;2022-12-05T16:16:48;7.60;99.90
48860;DHT22;34679;51.436;-2.518;2022-12-05T16:19:21;7.60;99.90
48860;DHT22;34679;51.436;-2.518;2022-12-05T16:22:00;7.60;99.90
48860;DHT22;34679;51.436;-2.518;2022-12-05T16:24:31;7.60;99.90
48860;DHT22;34679;51.436;-2.518;2022-12-05T16:27:02;7.60;99.90
48860;DHT22;34679;51.436;-2.518;2022-12-05T16:29:32;7.50;99.90
48860;DHT22;34679;51.436;-2.518;2022-12-05T16:32:01;7.60;99.90
48860;DHT22;34679;51.436;-2.518;2022-12-05T16:34:28;7.50;99.90
48860;DHT22;34679;51.436;-2.518;2022-12-05T16:36:56;7.50;99.90
48860;DHT22;34679;51.436;-2.518;2022-12-05T16:39:25;7.50;99.90
48860;DHT22;34679;51.436;-2.518;2022-12-05T16:41:56;7.40;99.90
48860;DHT22;34679;51.436;-2.518;2022-12-05T16:46:53;7.40;99.90
48860;DHT22;34679;51.436;-2.518;2022-12-05T16:52:17;7.40;99.90
48860;DHT22;34679;51.436;-2.518;2022-12-05T16:54:46;7.30;99.90
48860;DHT22;34679;51.436;-2.518;2022-12-05T16:57:16;7.20;99.90
48860;DHT22;34679;51.436;-2.518;2022-12-05T16:59:46;7.30;99.90
48860;DHT22;34679;51.436;-2.518;2022-12-05T17:02:15;7.20;99.90
48860;DHT22;34679;51.436;-2.518;2022-12-05T17:04:42;7.10;99.90
48860;DHT22;34679;51.436;-2.518;2022-12-05T17:07:08;7.10;99.90
48860;DHT22;34679;51.436;-2.518;2022-12-05T17:09:33;7.10;99.90
48860;DHT22;34679;51.436;-2.518;2022-12-05T17:12:22;7.10;99.90
48860;DHT22;34679;51.436;-2.518;2022-12-05T17:14:49;7.00;99.90
48860;DHT22;34679;51.436;-2.518;2022-12-05T17:17:14;7.00;99.90
48860;DHT22;34679;51.436;-2.518;2022-12-05T17:19:42;7.10;99.90
48860;DHT22;34679;51.436;-2.518;2022-12-05T17:22:09;7.00;99.90
48860;DHT22;34679;51.436;-2.518;2022-12-05T17:24:35;7.00;99.90
48860;DHT22;34679;51.436;-2.518;2022-12-05T17:27:01;7.00;99.90
48860;DHT22;34679;51.436;-2.518;2022-12-05T17:29:27;7.00;99.90
48860;DHT22;34679;51.436;-2.518;2022-12-05T17:31:53;7.00;99.90
48860;DHT22;34679;51.436;-2.518;2022-12-05T17:34:19;7.00;99.90
48860;DHT22;34679;51.436;-2.518;2022-12-05T17:36:45;7.10;99.90
48860;DHT22;34679;51.436;-2.518;2022-12-05T17:39:10;7.10;99.90
48860;DHT22;34679;51.436;-2.518;2022-12-05T17:41:36;7.10;99.90
48860;DHT22;34679;51.436;-2.518;2022-12-05T17:44:03;7.10;99.90
48860;DHT22;34679;51.436;-2.518;2022-12-05T17:46:30;7.00;99.90
48860;DHT22;34679;51.436;-2.518;2022-12-05T17:48:55;7.10;99.90
48860;DHT22;34679;51.436;-2.518;2022-12-05T17:51:22;7.10;99.90
48860;DHT22;34679;51.436;-2.518;2022-12-05T17:53:48;7.10;99.90
48860;DHT22;34679;51.436;-2.518;2022-12-05T17:56:14;7.00;99.90
48860;DHT22;34679;51.436;-2.518;2022-12-05T17:58:40;7.00;99.90
48860;DHT22;34679;51.436;-2.518;2022-12-05T18:01:09;7.10;99.90
48860;DHT22;34679;51.436;-2.518;2022-12-05T18:03:35;7.10;99.90
48860;DHT22;34679;51.436;-2.518;2022-12-05T18:06:03;7.10;99.90
48860;DHT22;34679;51.436;-2.518;2022-12-05T18:08:29;7.00;99.90
48860;DHT22;34679;51.436;-2.518;2022-12-05T18:11:07;7.10;99.90
48860;DHT22;34679;51.436;-2.518;2022-12-05T18:13:33;7.10;99.90
48860;DHT22;34679;51.436;-2.518;2022-12-05T18:15:59;7.20;99.90
48860;DHT22;34679;51.436;-2.518;2022-12-05T18:18:26;7.10;99.90
48860;DHT22;34679;51.436;-2.518;2022-12-05T18:21:03;7.10;99.90
48860;DHT22;34679;51.436;-2.518;2022-12-05T18:23:29;7.10;99.90
48860;DHT22;34679;51.436;-2.518;2022-12-05T18:25:58;7.10;99.90
48860;DHT22;34679;51.436;-2.518;2022-12-05T18:28:24;7.10;99.90
48860;DHT22;34679;51.436;-2.518;2022-12-05T18:30:50;7.10;99.90
48860;DHT22;34679;51.436;-2.518;2022-12-05T18:33:15;7.10;99.90
48860;DHT22;34679;51.436;-2.518;2022-12-05T18:35:41;7.10;99.90
48860;DHT22;34679;51.436;-2.518;2022-12-05T18:38:09;7.10;99.90
48860;DHT22;34679;51.436;-2.518;2022-12-05T18:40:35;7.10;99.90
48860;DHT22;34679;51.436;-2.518;2022-12-05T18:43:01;7.10;99.90
48860;DHT22;34679;51.436;-2.518;2022-12-05T18:45:27;7.10;99.90
48860;DHT22;34679;51.436;-2.518;2022-12-05T18:47:52;7.10;99.90
48860;DHT22;34679;51.436;-2.518;2022-12-05T18:50:18;7.10;99.90
48860;DHT22;34679;51.436;-2.518;2022-12-05T18:52:44;7.10;99.90
48860;DHT22;34679;51.436;-2.518;2022-12-05T18:55:09;7.10;99.90
48860;DHT22;34679;51.436;-2.518;2022-12-05T18:57:35;7.10;99.90
48860;DHT22;34679;51.436;-2.518;2022-12-05T19:00:02;7.20;99.90
48860;DHT22;34679;51.436;-2.518;2022-12-05T19:02:28;7.20;99.90
48860;DHT22;34679;51.436;-2.518;2022-12-05T19:04:54;7.20;99.90
48860;DHT22;34679;51.436;-2.518;2022-12-05T19:07:20;7.20;99.90
48860;DHT22;34679;51.436;-2.518;2022-12-05T19:09:45;7.10;99.90
48860;DHT22;34679;51.436;-2.518;2022-12-05T19:12:11;7.10;99.90
48860;DHT22;34679;51.436;-2.518;2022-12-05T19:14:37;7.10;99.90
48860;DHT22;34679;51.436;-2.518;2022-12-05T19:17:03;7.10;99.90
48860;DHT22;34679;51.436;-2.518;2022-12-05T19:19:28;7.20;99.90